Hoxie, Arkansas
Current Conditions -  °F | °C
As of 2:15 AM on Saturday 25 Oct 2014 (Local Time) from KARG Reporting Station
Clear Clear  
Wind Chill: 57°   Ceiling: Unl
Heat Index: 57°   Visibility: 9mi
Dew Point: 52°   Wind: 7mph
Humidity: 82%   Direction: 210°SSW
Pressure: 30.05"   Gusts: NA
Location:  36.05°N, 90.98°W
Report Text: KARG 250715Z AUTO 21006KT 9SM CLR 14/11 A3005 RMK AO1
Loading
Personal Weather Stations






























Interactive Weather Map
Tropical Storm Tracking
New forecast layout! Learn more

10-Day Weather Forecast

Advertisements
Track Severe Weather on mobile